sensor_id;sensor_type;location;lat;lon;timestamp;temperature;humidity
75466;HTU21D;64049;46.290;44.240;2023-04-03T00:01:15;6.64;65.44
75466;HTU21D;64049;46.290;44.240;2023-04-03T00:03:41;6.64;65.37
75466;HTU21D;64049;46.290;44.240;2023-04-03T00:06:08;6.60;65.22
75466;HTU21D;64049;46.290;44.240;2023-04-03T00:08:36;6.63;65.37
75466;HTU21D;64049;46.290;44.240;2023-04-03T00:11:03;6.63;65.35
75466;HTU21D;64049;46.290;44.240;2023-04-03T00:13:29;6.56;65.17
75466;HTU21D;64049;46.290;44.240;2023-04-03T00:15:55;6.57;65.27
75466;HTU21D;64049;46.290;44.240;2023-04-03T00:18:21;6.65;65.37
75466;HTU21D;64049;46.290;44.240;2023-04-03T00:20:48;6.73;65.31
75466;HTU21D;64049;46.290;44.240;2023-04-03T00:23:14;6.81;65.08
75466;HTU21D;64049;46.290;44.240;2023-04-03T00:25:40;6.80;65.04
75466;HTU21D;64049;46.290;44.240;2023-04-03T00:28:06;6.78;65.04
75466;HTU21D;64049;46.290;44.240;2023-04-03T00:30:32;6.76;65.10
75466;HTU21D;64049;46.290;44.240;2023-04-03T00:32:58;6.76;65.10
75466;HTU21D;64049;46.290;44.240;2023-04-03T00:35:27;6.75;65.09
75466;HTU21D;64049;46.290;44.240;2023-04-03T00:37:54;6.68;65.18
75466;HTU21D;64049;46.290;44.240;2023-04-03T00:40:23;6.63;65.24
75466;HTU21D;64049;46.290;44.240;2023-04-03T00:42:55;6.61;65.34
75466;HTU21D;64049;46.290;44.240;2023-04-03T00:48:00;6.58;65.34
75466;HTU21D;64049;46.290;44.240;2023-04-03T00:50:29;6.56;65.30
75466;HTU21D;64049;46.290;44.240;2023-04-03T00:52:56;6.52;65.33
75466;HTU21D;64049;46.290;44.240;2023-04-03T00:55:23;6.45;65.46
75466;HTU21D;64049;46.290;44.240;2023-04-03T00:57:50;6.43;65.51
75466;HTU21D;64049;46.290;44.240;2023-04-03T01:00:19;6.38;65.72
75466;HTU21D;64049;46.290;44.240;2023-04-03T01:02:50;6.31;65.69
75466;HTU21D;64049;46.290;44.240;2023-04-03T01:05:17;6.26;65.91
75466;HTU21D;64049;46.290;44.240;2023-04-03T01:07:45;6.19;66.07
75466;HTU21D;64049;46.290;44.240;2023-04-03T01:10:14;6.08;66.36
75466;HTU21D;64049;46.290;44.240;2023-04-03T01:12:44;6.00;66.40
75466;HTU21D;64049;46.290;44.240;2023-04-03T01:15:19;5.94;66.52
75466;HTU21D;64049;46.290;44.240;2023-04-03T01:17:53;5.82;66.59
75466;HTU21D;64049;46.290;44.240;2023-04-03T01:23:17;5.83;66.95
75466;HTU21D;64049;46.290;44.240;2023-04-03T01:25:50;5.80;66.86
75466;HTU21D;64049;46.290;44.240;2023-04-03T01:28:23;5.83;66.81
75466;HTU21D;64049;46.290;44.240;2023-04-03T01:31:27;5.90;66.92
75466;HTU21D;64049;46.290;44.240;2023-04-03T01:33:55;5.98;66.82
75466;HTU21D;64049;46.290;44.240;2023-04-03T01:36:24;6.01;66.67
75466;HTU21D;64049;46.290;44.240;2023-04-03T01:38:52;6.06;66.72
75466;HTU21D;64049;46.290;44.240;2023-04-03T01:41:19;6.07;66.69
75466;HTU21D;64049;46.290;44.240;2023-04-03T01:43:47;6.12;66.62
75466;HTU21D;64049;46.290;44.240;2023-04-03T01:46:14;6.16;66.83
75466;HTU21D;64049;46.290;44.240;2023-04-03T01:48:40;6.22;66.71
75466;HTU21D;64049;46.290;44.240;2023-04-03T01:51:07;6.27;66.50
75466;HTU21D;64049;46.290;44.240;2023-04-03T01:53:33;6.26;66.53
75466;HTU21D;64049;46.290;44.240;2023-04-03T01:55:59;6.24;66.51
75466;HTU21D;64049;46.290;44.240;2023-04-03T01:58:25;6.25;66.57
75466;HTU21D;64049;46.290;44.240;2023-04-03T02:00:52;6.27;66.54
75466;HTU21D;64049;46.290;44.240;2023-04-03T02:03:19;6.21;66.45
75466;HTU21D;64049;46.290;44.240;2023-04-03T02:05:45;6.14;66.50
75466;HTU21D;64049;46.290;44.240;2023-04-03T02:08:11;6.11;66.75
75466;HTU21D;64049;46.290;44.240;2023-04-03T02:10:37;6.16;66.65
75466;HTU21D;64049;46.290;44.240;2023-04-03T02:13:03;6.14;66.51
75466;HTU21D;64049;46.290;44.240;2023-04-03T02:15:29;6.08;66.59
75466;HTU21D;64049;46.290;44.240;2023-04-03T02:17:55;6.06;66.46
75466;HTU21D;64049;46.290;44.240;2023-04-03T02:20:21;6.13;66.69
75466;HTU21D;64049;46.290;44.240;2023-04-03T02:22:47;6.17;66.52
75466;HTU21D;64049;46.290;44.240;2023-04-03T02:25:13;6.14;66.41
75466;HTU21D;64049;46.290;44.240;2023-04-03T02:27:40;6.11;66.46
75466;HTU21D;64049;46.290;44.240;2023-04-03T02:30:06;6.06;66.57
75466;HTU21D;64049;46.290;44.240;2023-04-03T02:32:36;6.08;66.62
75466;HTU21D;64049;46.290;44.240;2023-04-03T02:35:02;6.05;66.46
75466;HTU21D;64049;46.290;44.240;2023-04-03T02:37:28;6.00;66.54
75466;HTU21D;64049;46.290;44.240;2023-04-03T02:39:55;5.98;66.62
75466;HTU21D;64049;46.290;44.240;2023-04-03T02:42:21;5.98;66.64
75466;HTU21D;64049;46.290;44.240;2023-04-03T02:44:47;5.98;66.62
75466;HTU21D;64049;46.290;44.240;2023-04-03T02:47:13;5.96;66.45
75466;HTU21D;64049;46.290;44.240;2023-04-03T02:49:39;5.94;66.50
75466;HTU21D;64049;46.290;44.240;2023-04-03T02:52:06;5.95;66.74
75466;HTU21D;64049;46.290;44.240;2023-04-03T02:54:32;5.95;66.46
75466;HTU21D;64049;46.290;44.240;2023-04-03T02:57:02;5.91;66.40
75466;HTU21D;64049;46.290;44.240;2023-04-03T02:59:28;5.97;66.47
75466;HTU21D;64049;46.290;44.240;2023-04-03T03:01:54;6.04;66.36
75466;HTU21D;64049;46.290;44.240;2023-04-03T03:04:21;6.13;66.51
75466;HTU21D;64049;46.290;44.240;2023-04-03T03:06:47;6.26;66.36
75466;HTU21D;64049;46.290;44.240;2023-04-03T03:09:13;6.34;66.16
75466;HTU21D;64049;46.290;44.240;2023-04-03T03:11:39;6.41;66.01
75466;HTU21D;64049;46.290;44.240;2023-04-03T03:14:05;6.49;65.86
75466;HTU21D;64049;46.290;44.240;2023-04-03T03:16:32;6.59;65.75
75466;HTU21D;64049;46.290;44.240;2023-04-03T03:18:58;6.68;65.59
75466;HTU21D;64049;46.290;44.240;2023-04-03T03:21:24;6.83;65.53
75466;HTU21D;64049;46.290;44.240;2023-04-03T03:23:50;6.95;65.23
75466;HTU21D;64049;46.290;44.240;2023-04-03T03:26:16;7.07;65.07
75466;HTU21D;64049;46.290;44.240;2023-04-03T03:28:42;7.14;64.85
75466;HTU21D;64049;46.290;44.240;2023-04-03T03:31:08;7.22;64.81
75466;HTU21D;64049;46.290;44.240;2023-04-03T03:33:36;7.31;64.68
75466;HTU21D;64049;46.290;44.240;2023-04-03T03:36:02;7.38;64.62
75466;HTU21D;64049;46.290;44.240;2023-04-03T03:38:28;7.45;64.53
75466;HTU21D;64049;46.290;44.240;2023-04-03T03:40:55;7.58;64.43
75466;HTU21D;64049;46.290;44.240;2023-04-03T03:43:22;7.69;64.30
75466;HTU21D;64049;46.290;44.240;2023-04-03T03:45:51;7.75;64.11
75466;HTU21D;64049;46.290;44.240;2023-04-03T03:48:19;7.81;64.08
75466;HTU21D;64049;46.290;44.240;2023-04-03T03:50:45;7.84;64.03
75466;HTU21D;64049;46.290;44.240;2023-04-03T03:53:12;7.91;64.01
75466;HTU21D;64049;46.290;44.240;2023-04-03T03:55:38;8.00;63.96
75466;HTU21D;64049;46.290;44.240;2023-04-03T03:58:04;8.07;63.85
75466;HTU21D;64049;46.290;44.240;2023-04-03T04:00:31;8.15;63.75
75466;HTU21D;64049;46.290;44.240;2023-04-03T04:02:57;8.27;63.61
75466;HTU21D;64049;46.290;44.240;2023-04-03T04:05:25;8.38;63.47
75466;HTU21D;64049;46.290;44.240;2023-04-03T04:07:52;8.53;63.28
75466;HTU21D;64049;46.290;44.240;2023-04-03T04:10:18;8.67;63.15
75466;HTU21D;64049;46.290;44.240;2023-04-03T04:12:45;8.81;62.95
75466;HTU21D;64049;46.290;44.240;2023-04-03T04:15:11;8.95;62.75
75466;HTU21D;64049;46.290;44.240;2023-04-03T04:17:38;9.05;62.66
75466;HTU21D;64049;46.290;44.240;2023-04-03T04:20:08;9.16;62.59
75466;HTU21D;64049;46.290;44.240;2023-04-03T04:22:35;9.26;62.45
75466;HTU21D;64049;46.290;44.240;2023-04-03T04:25:01;9.38;62.29
75466;HTU21D;64049;46.290;44.240;2023-04-03T04:27:27;9.50;62.03
75466;HTU21D;64049;46.290;44.240;2023-04-03T04:29:53;9.60;61.90
75466;HTU21D;64049;46.290;44.240;2023-04-03T04:32:24;9.72;61.54
75466;HTU21D;64049;46.290;44.240;2023-04-03T04:34:51;9.84;61.30
75466;HTU21D;64049;46.290;44.240;2023-04-03T04:37:17;9.96;61.02
75466;HTU21D;64049;46.290;44.240;2023-04-03T04:39:43;10.07;60.56
75466;HTU21D;64049;46.290;44.240;2023-04-03T04:42:09;10.23;60.14
75466;HTU21D;64049;46.290;44.240;2023-04-03T04:44:39;10.38;59.56
75466;HTU21D;64049;46.290;44.240;2023-04-03T04:47:06;10.54;59.25
75466;HTU21D;64049;46.290;44.240;2023-04-03T04:49:32;10.68;58.90
75466;HTU21D;64049;46.290;44.240;2023-04-03T04:51:59;10.86;57.97
75466;HTU21D;64049;46.290;44.240;2023-04-03T04:54:29;11.03;57.54
75466;HTU21D;64049;46.290;44.240;2023-04-03T04:56:56;11.18;56.87
75466;HTU21D;64049;46.290;44.240;2023-04-03T04:59:21;11.29;56.87
75466;HTU21D;64049;46.290;44.240;2023-04-03T05:01:49;11.42;56.49
75466;HTU21D;64049;46.290;44.240;2023-04-03T05:04:16;11.56;56.22
75466;HTU21D;64049;46.290;44.240;2023-04-03T05:06:45;11.72;55.91
75466;HTU21D;64049;46.290;44.240;2023-04-03T05:09:16;11.86;55.54
75466;HTU21D;64049;46.290;44.240;2023-04-03T05:11:45;12.02;54.93
75466;HTU21D;64049;46.290;44.240;2023-04-03T05:14:13;12.12;54.78
75466;HTU21D;64049;46.290;44.240;2023-04-03T05:16:40;12.25;54.83
75466;HTU21D;64049;46.290;44.240;2023-04-03T05:19:06;12.41;54.36
75466;HTU21D;64049;46.290;44.240;2023-04-03T05:21:33;12.58;53.40
75466;HTU21D;64049;46.290;44.240;2023-04-03T05:24:02;12.72;52.34
75466;HTU21D;64049;46.290;44.240;2023-04-03T05:26:31;12.84;51.50
75466;HTU21D;64049;46.290;44.240;2023-04-03T05:28:58;12.97;51.10
75466;HTU21D;64049;46.290;44.240;2023-04-03T05:31:25;13.11;51.43
75466;HTU21D;64049;46.290;44.240;2023-04-03T05:33:51;13.24;51.15
75466;HTU21D;64049;46.290;44.240;2023-04-03T05:36:18;13.39;50.50
75466;HTU21D;64049;46.290;44.240;2023-04-03T05:38:47;13.47;50.53
75466;HTU21D;64049;46.290;44.240;2023-04-03T05:41:15;13.54;49.84
75466;HTU21D;64049;46.290;44.240;2023-04-03T05:43:43;13.67;49.72
75466;HTU21D;64049;46.290;44.240;2023-04-03T05:46:15;13.81;49.55
75466;HTU21D;64049;46.290;44.240;2023-04-03T05:48:44;13.91;48.98
75466;HTU21D;64049;46.290;44.240;2023-04-03T05:51:25;13.96;48.05
75466;HTU21D;64049;46.290;44.240;2023-04-03T05:54:03;14.07;47.73
75466;HTU21D;64049;46.290;44.240;2023-04-03T05:56:31;14.14;47.91
75466;HTU21D;64049;46.290;44.240;2023-04-03T05:58:57;14.27;47.92
75466;HTU21D;64049;46.290;44.240;2023-04-03T06:01:26;14.41;48.02
75466;HTU21D;64049;46.290;44.240;2023-04-03T06:03:52;14.55;47.53
75466;HTU21D;64049;46.290;44.240;2023-04-03T06:06:18;14.57;47.02
75466;HTU21D;64049;46.290;44.240;2023-04-03T06:08:43;14.69;47.07
75466;HTU21D;64049;46.290;44.240;2023-04-03T06:11:11;14.73;45.56
75466;HTU21D;64049;46.290;44.240;2023-04-03T06:13:37;14.79;45.32
75466;HTU21D;64049;46.290;44.240;2023-04-03T06:16:04;14.86;45.10
75466;HTU21D;64049;46.290;44.240;2023-04-03T06:18:31;14.98;45.03
75466;HTU21D;64049;46.290;44.240;2023-04-03T06:20:57;15.11;44.22
75466;HTU21D;64049;46.290;44.240;2023-04-03T06:23:24;15.13;44.11
75466;HTU21D;64049;46.290;44.240;2023-04-03T06:25:50;15.23;44.32
75466;HTU21D;64049;46.290;44.240;2023-04-03T06:28:16;15.33;43.99
75466;HTU21D;64049;46.290;44.240;2023-04-03T06:30:42;15.42;43.39
75466;HTU21D;64049;46.290;44.240;2023-04-03T06:33:07;15.52;43.71
75466;HTU21D;64049;46.290;44.240;2023-04-03T06:35:33;15.66;43.39
75466;HTU21D;64049;46.290;44.240;2023-04-03T06:38:00;15.76;43.36
75466;HTU21D;64049;46.290;44.240;2023-04-03T06:40:26;15.81;42.00
75466;HTU21D;64049;46.290;44.240;2023-04-03T06:42:52;15.77;41.91
75466;HTU21D;64049;46.290;44.240;2023-04-03T06:45:19;15.81;41.74
75466;HTU21D;64049;46.290;44.240;2023-04-03T06:47:45;15.78;41.47
75466;HTU21D;64049;46.290;44.240;2023-04-03T06:50:11;15.87;41.43
75466;HTU21D;64049;46.290;44.240;2023-04-03T06:52:40;16.10;41.68
75466;HTU21D;64049;46.290;44.240;2023-04-03T06:55:06;16.31;41.68
75466;HTU21D;64049;46.290;44.240;2023-04-03T06:57:32;16.47;41.96
75466;HTU21D;64049;46.290;44.240;2023-04-03T06:59:58;16.71;41.79
75466;HTU21D;64049;46.290;44.240;2023-04-03T07:02:24;16.80;41.55
75466;HTU21D;64049;46.290;44.240;2023-04-03T07:04:49;16.81;40.60
75466;HTU21D;64049;46.290;44.240;2023-04-03T07:07:15;16.74;41.26
75466;HTU21D;64049;46.290;44.240;2023-04-03T07:09:43;16.92;41.00
75466;HTU21D;64049;46.290;44.240;2023-04-03T07:12:09;17.01;41.26
75466;HTU21D;64049;46.290;44.240;2023-04-03T07:14:34;17.11;40.78
75466;HTU21D;64049;46.290;44.240;2023-04-03T07:17:01;17.08;40.39
75466;HTU21D;64049;46.290;44.240;2023-04-03T07:19:26;16.96;40.55
75466;HTU21D;64049;46.290;44.240;2023-04-03T07:21:54;17.01;40.03
75466;HTU21D;64049;46.290;44.240;2023-04-03T07:24:20;16.96;40.21
75466;HTU21D;64049;46.290;44.240;2023-04-03T07:26:50;17.00;40.05
75466;HTU21D;64049;46.290;44.240;2023-04-03T07:29:17;17.24;40.33
75466;HTU21D;64049;46.290;44.240;2023-04-03T07:31:44;17.60;39.98
75466;HTU21D;64049;46.290;44.240;2023-04-03T07:34:11;17.67;39.76
75466;HTU21D;64049;46.290;44.240;2023-04-03T07:36:37;17.67;39.49
75466;HTU21D;64049;46.290;44.240;2023-04-03T07:39:03;17.60;39.24
75466;HTU21D;64049;46.290;44.240;2023-04-03T07:41:29;17.56;39.33
75466;HTU21D;64049;46.290;44.240;2023-04-03T07:43:56;17.79;39.73
75466;HTU21D;64049;46.290;44.240;2023-04-03T07:46:23;18.21;39.54
75466;HTU21D;64049;46.290;44.240;2023-04-03T07:48:48;18.64;39.15
75466;HTU21D;64049;46.290;44.240;2023-04-03T07:51:15;18.88;38.24
75466;HTU21D;64049;46.290;44.240;2023-04-03T07:53:41;18.77;38.09
75466;HTU21D;64049;46.290;44.240;2023-04-03T07:56:07;18.74;38.18
75466;HTU21D;64049;46.290;44.240;2023-04-03T07:58:33;18.67;38.26
75466;HTU21D;64049;46.290;44.240;2023-04-03T08:01:00;18.85;38.33
75466;HTU21D;64049;46.290;44.240;2023-04-03T08:03:26;19.18;38.06
75466;HTU21D;64049;46.290;44.240;2023-04-03T08:05:52;19.44;37.82
75466;HTU21D;64049;46.290;44.240;2023-04-03T08:08:21;19.62;37.39
75466;HTU21D;64049;46.290;44.240;2023-04-03T08:10:52;19.53;36.73
75466;HTU21D;64049;46.290;44.240;2023-04-03T08:13:19;19.56;37.05
75466;HTU21D;64049;46.290;44.240;2023-04-03T08:15:46;19.45;35.47
75466;HTU21D;64049;46.290;44.240;2023-04-03T08:18:13;19.42;36.12
75466;HTU21D;64049;46.290;44.240;2023-04-03T08:20:39;19.66;36.18
75466;HTU21D;64049;46.290;44.240;2023-04-03T08:23:06;19.98;36.05
75466;HTU21D;64049;46.290;44.240;2023-04-03T08:25:34;20.18;36.19
75466;HTU21D;64049;46.290;44.240;2023-04-03T08:28:00;20.22;36.54
75466;HTU21D;64049;46.290;44.240;2023-04-03T08:30:27;20.29;36.46
75466;HTU21D;64049;46.290;44.240;2023-04-03T08:32:53;20.57;36.05
75466;HTU21D;64049;46.290;44.240;2023-04-03T08:35:19;20.64;34.50
75466;HTU21D;64049;46.290;44.240;2023-04-03T08:37:46;20.62;35.14
75466;HTU21D;64049;46.290;44.240;2023-04-03T08:40:16;20.84;34.88
75466;HTU21D;64049;46.290;44.240;2023-04-03T08:48:07;20.56;33.57
75466;HTU21D;64049;46.290;44.240;2023-04-03T08:50:40;20.56;34.13
75466;HTU21D;64049;46.290;44.240;2023-04-03T08:53:15;20.86;34.04
75466;HTU21D;64049;46.290;44.240;2023-04-03T08:55:49;21.08;33.33
75466;HTU21D;64049;46.290;44.240;2023-04-03T08:58:22;21.19;33.60
75466;HTU21D;64049;46.290;44.240;2023-04-03T09:01:02;21.50;33.07
75466;HTU21D;64049;46.290;44.240;2023-04-03T09:03:36;21.44;32.99
75466;HTU21D;64049;46.290;44.240;2023-04-03T09:06:22;21.67;33.05
75466;HTU21D;64049;46.290;44.240;2023-04-03T09:14:36;22.29;32.80
75466;HTU21D;64049;46.290;44.240;2023-04-03T09:19:58;22.27;31.99
75466;HTU21D;64049;46.290;44.240;2023-04-03T09:22:31;22.32;32.02
75466;HTU21D;64049;46.290;44.240;2023-04-03T09:25:02;22.37;32.06
75466;HTU21D;64049;46.290;44.240;2023-04-03T09:27:31;22.56;31.95
75466;HTU21D;64049;46.290;44.240;2023-04-03T09:29:57;22.09;30.40
75466;HTU21D;64049;46.290;44.240;2023-04-03T09:32:31;21.64;30.97
75466;HTU21D;64049;46.290;44.240;2023-04-03T09:35:04;21.72;31.45
75466;HTU21D;64049;46.290;44.240;2023-04-03T09:37:44;21.82;31.64
75466;HTU21D;64049;46.290;44.240;2023-04-03T09:42:55;21.73;31.46
75466;HTU21D;64049;46.290;44.240;2023-04-03T09:45:33;21.45;31.31
75466;HTU21D;64049;46.290;44.240;2023-04-03T09:48:17;21.65;32.04
75466;HTU21D;64049;46.290;44.240;2023-04-03T09:53:30;21.99;31.71
75466;HTU21D;64049;46.290;44.240;2023-04-03T09:55:57;22.24;31.73
75466;HTU21D;64049;46.290;44.240;2023-04-03T09:58:28;22.73;31.27
75466;HTU21D;64049;46.290;44.240;2023-04-03T10:00:58;23.22;30.48
75466;HTU21D;64049;46.290;44.240;2023-04-03T10:03:33;23.53;29.90
75466;HTU21D;64049;46.290;44.240;2023-04-03T10:06:23;23.70;29.63
75466;HTU21D;64049;46.290;44.240;2023-04-03T10:09:03;23.81;28.30
75466;HTU21D;64049;46.290;44.240;2023-04-03T10:11:30;23.68;28.13
75466;HTU21D;64049;46.290;44.240;2023-04-03T10:13:58;23.03;27.37
75466;HTU21D;64049;46.290;44.240;2023-04-03T10:26:02;21.42;29.32
75466;HTU21D;64049;46.290;44.240;2023-04-03T10:28:48;21.00;29.13
75466;HTU21D;64049;46.290;44.240;2023-04-03T10:31:41;21.17;29.90
75466;HTU21D;64049;46.290;44.240;2023-04-03T10:34:23;21.54;29.73
75466;HTU21D;64049;46.290;44.240;2023-04-03T10:39:38;22.16;28.97
75466;HTU21D;64049;46.290;44.240;2023-04-03T10:45:15;22.46;28.16
75466;HTU21D;64049;46.290;44.240;2023-04-03T10:48:10;21.87;28.17
75466;HTU21D;64049;46.290;44.240;2023-04-03T10:50:46;21.53;28.68
75466;HTU21D;64049;46.290;44.240;2023-04-03T10:58:56;20.44;29.61
75466;HTU21D;64049;46.290;44.240;2023-04-03T11:01:38;20.68;30.15
75466;HTU21D;64049;46.290;44.240;2023-04-03T11:04:06;20.94;30.20
75466;HTU21D;64049;46.290;44.240;2023-04-03T11:06:41;21.35;29.80
75466;HTU21D;64049;46.290;44.240;2023-04-03T11:11:45;22.14;28.96
75466;HTU21D;64049;46.290;44.240;2023-04-03T11:14:21;22.33;28.88
75466;HTU21D;64049;46.290;44.240;2023-04-03T11:20:24;22.50;28.72
75466;HTU21D;64049;46.290;44.240;2023-04-03T11:22:43;22.39;28.39
75466;HTU21D;64049;46.290;44.240;2023-04-03T11:27:44;22.01;28.95
75466;HTU21D;64049;46.290;44.240;2023-04-03T11:30:18;21.68;28.80
75466;HTU21D;64049;46.290;44.240;2023-04-03T11:33:03;21.48;28.68
75466;HTU21D;64049;46.290;44.240;2023-04-03T11:35:32;21.35;28.81
75466;HTU21D;64049;46.290;44.240;2023-04-03T11:38:00;21.53;28.67
75466;HTU21D;64049;46.290;44.240;2023-04-03T11:40:33;21.55;29.13
75466;HTU21D;64049;46.290;44.240;2023-04-03T11:43:20;22.11;28.81
75466;HTU21D;64049;46.290;44.240;2023-04-03T11:46:06;22.71;28.62
75466;HTU21D;64049;46.290;44.240;2023-04-03T11:51:46;22.76;28.17
75466;HTU21D;64049;46.290;44.240;2023-04-03T11:53:48;22.93;28.49
75466;HTU21D;64049;46.290;44.240;2023-04-03T11:56:40;22.95;28.15
75466;HTU21D;64049;46.290;44.240;2023-04-03T12:01:47;22.93;27.97
75466;HTU21D;64049;46.290;44.240;2023-04-03T12:04:16;22.69;26.71
75466;HTU21D;64049;46.290;44.240;2023-04-03T12:09:54;22.02;28.10
75466;HTU21D;64049;46.290;44.240;2023-04-03T12:15:12;23.17;25.29
75466;HTU21D;64049;46.290;44.240;2023-04-03T12:17:43;23.51;23.76
75466;HTU21D;64049;46.290;44.240;2023-04-03T12:23:34;24.32;21.75
75466;HTU21D;64049;46.290;44.240;2023-04-03T12:28:43;24.84;20.00
75466;HTU21D;64049;46.290;44.240;2023-04-03T12:31:10;25.09;19.28
75466;HTU21D;64049;46.290;44.240;2023-04-03T12:34:12;25.28;18.89
75466;HTU21D;64049;46.290;44.240;2023-04-03T12:45:19;22.26;23.64
75466;HTU21D;64049;46.290;44.240;2023-04-03T12:47:45;21.31;25.71
75466;HTU21D;64049;46.290;44.240;2023-04-03T12:50:31;20.65;27.16
75466;HTU21D;64049;46.290;44.240;2023-04-03T12:53:06;20.19;28.19
75466;HTU21D;64049;46.290;44.240;2023-04-03T12:55:32;20.10;28.58
75466;HTU21D;64049;46.290;44.240;2023-04-03T12:58:25;20.12;28.78
75466;HTU21D;64049;46.290;44.240;2023-04-03T13:01:02;20.47;28.38
75466;HTU21D;64049;46.290;44.240;2023-04-03T13:03:29;20.59;28.26
75466;HTU21D;64049;46.290;44.240;2023-04-03T13:05:59;20.51;28.36
75466;HTU21D;64049;46.290;44.240;2023-04-03T13:08:25;20.43;28.60
75466;HTU21D;64049;46.290;44.240;2023-04-03T13:11:10;20.32;28.85
75466;HTU21D;64049;46.290;44.240;2023-04-03T13:13:36;21.57;27.55
75466;HTU21D;64049;46.290;44.240;2023-04-03T13:16:11;23.66;24.85
75466;HTU21D;64049;46.290;44.240;2023-04-03T13:18:39;24.20;24.32
75466;HTU21D;64049;46.290;44.240;2023-04-03T13:21:18;23.53;25.01
75466;HTU21D;64049;46.290;44.240;2023-04-03T13:23:48;22.92;25.84
75466;HTU21D;64049;46.290;44.240;2023-04-03T13:26:17;22.64;26.23
75466;HTU21D;64049;46.290;44.240;2023-04-03T13:28:45;21.98;27.25
75466;HTU21D;64049;46.290;44.240;2023-04-03T13:33:52;21.06;28.49
75466;HTU21D;64049;46.290;44.240;2023-04-03T13:36:27;20.91;28.89
75466;HTU21D;64049;46.290;44.240;2023-04-03T13:39:06;21.03;28.88
75466;HTU21D;64049;46.290;44.240;2023-04-03T13:41:35;21.10;28.79
75466;HTU21D;64049;46.290;44.240;2023-04-03T13:46:58;22.90;26.71
75466;HTU21D;64049;46.290;44.240;2023-04-03T13:55:00;22.13;27.49
75466;HTU21D;64049;46.290;44.240;2023-04-03T13:57:27;21.27;28.84
75466;HTU21D;64049;46.290;44.240;2023-04-03T13:59:53;20.76;29.70
75466;HTU21D;64049;46.290;44.240;2023-04-03T14:02:39;20.33;30.59
75466;HTU21D;64049;46.290;44.240;2023-04-03T14:05:06;20.18;30.79
75466;HTU21D;64049;46.290;44.240;2023-04-03T14:07:34;19.98;31.26
75466;HTU21D;64049;46.290;44.240;2023-04-03T14:09:59;19.80;31.86
75466;HTU21D;64049;46.290;44.240;2023-04-03T14:12:52;19.42;32.31
75466;HTU21D;64049;46.290;44.240;2023-04-03T14:15:22;19.17;32.83
75466;HTU21D;64049;46.290;44.240;2023-04-03T14:17:49;18.95;33.22
75466;HTU21D;64049;46.290;44.240;2023-04-03T14:20:19;18.77;33.96
75466;HTU21D;64049;46.290;44.240;2023-04-03T14:22:46;18.51;35.56
75466;HTU21D;64049;46.290;44.240;2023-04-03T14:25:12;18.22;37.50
75466;HTU21D;64049;46.290;44.240;2023-04-03T14:27:41;17.98;38.69
75466;HTU21D;64049;46.290;44.240;2023-04-03T14:30:14;17.73;39.85
75466;HTU21D;64049;46.290;44.240;2023-04-03T14:32:41;17.46;41.19
75466;HTU21D;64049;46.290;44.240;2023-04-03T14:35:07;17.21;41.88
75466;HTU21D;64049;46.290;44.240;2023-04-03T14:37:34;17.05;42.92
75466;HTU21D;64049;46.290;44.240;2023-04-03T14:40:03;16.88;43.39
75466;HTU21D;64049;46.290;44.240;2023-04-03T14:42:32;16.71;43.84
75466;HTU21D;64049;46.290;44.240;2023-04-03T14:45:00;16.57;44.77
75466;HTU21D;64049;46.290;44.240;2023-04-03T14:47:28;16.43;45.11
75466;HTU21D;64049;46.290;44.240;2023-04-03T14:49:55;16.28;45.82
75466;HTU21D;64049;46.290;44.240;2023-04-03T14:52:34;16.15;46.29
75466;HTU21D;64049;46.290;44.240;2023-04-03T14:55:01;16.02;46.80
75466;HTU21D;64049;46.290;44.240;2023-04-03T14:57:29;15.91;47.15
75466;HTU21D;64049;46.290;44.240;2023-04-03T14:59:56;15.80;47.74
75466;HTU21D;64049;46.290;44.240;2023-04-03T15:04:54;15.60;48.61
75466;HTU21D;64049;46.290;44.240;2023-04-03T15:07:21;15.49;48.91
75466;HTU21D;64049;46.290;44.240;2023-04-03T15:09:48;15.42;49.40
75466;HTU21D;64049;46.290;44.240;2023-04-03T15:12:14;15.37;49.44
75466;HTU21D;64049;46.290;44.240;2023-04-03T15:14:40;15.30;50.25
75466;HTU21D;64049;46.290;44.240;2023-04-03T15:17:08;15.23;50.46
75466;HTU21D;64049;46.290;44.240;2023-04-03T15:19:38;15.12;51.23
75466;HTU21D;64049;46.290;44.240;2023-04-03T15:22:04;14.94;52.53
75466;HTU21D;64049;46.290;44.240;2023-04-03T15:24:30;14.62;54.00
75466;HTU21D;64049;46.290;44.240;2023-04-03T15:26:56;14.47;54.57
75466;HTU21D;64049;46.290;44.240;2023-04-03T15:29:22;14.38;54.61
75466;HTU21D;64049;46.290;44.240;2023-04-03T15:31:48;14.27;54.82
75466;HTU21D;64049;46.290;44.240;2023-04-03T15:34:15;14.15;54.76
75466;HTU21D;64049;46.290;44.240;2023-04-03T15:36:41;14.06;55.23
75466;HTU21D;64049;46.290;44.240;2023-04-03T15:39:07;13.95;56.31
75466;HTU21D;64049;46.290;44.240;2023-04-03T15:41:33;13.82;56.98
75466;HTU21D;64049;46.290;44.240;2023-04-03T15:43:59;13.71;57.99
75466;HTU21D;64049;46.290;44.240;2023-04-03T15:46:25;13.60;58.97
75466;HTU21D;64049;46.290;44.240;2023-04-03T15:48:51;13.48;59.34
75466;HTU21D;64049;46.290;44.240;2023-04-03T15:51:17;13.39;60.01
75466;HTU21D;64049;46.290;44.240;2023-04-03T15:53:43;13.33;60.20
75466;HTU21D;64049;46.290;44.240;2023-04-03T15:56:09;13.29;60.97
75466;HTU21D;64049;46.290;44.240;2023-04-03T15:58:35;13.21;61.21
75466;HTU21D;64049;46.290;44.240;2023-04-03T16:01:02;13.14;61.13
75466;HTU21D;64049;46.290;44.240;2023-04-03T16:03:28;13.07;61.64
75466;HTU21D;64049;46.290;44.240;2023-04-03T16:05:53;13.00;62.20
75466;HTU21D;64049;46.290;44.240;2023-04-03T16:08:20;12.91;62.45
75466;HTU21D;64049;46.290;44.240;2023-04-03T16:10:52;12.82;62.73
75466;HTU21D;64049;46.290;44.240;2023-04-03T16:13:18;12.78;62.98
75466;HTU21D;64049;46.290;44.240;2023-04-03T16:15:44;12.74;62.98
75466;HTU21D;64049;46.290;44.240;2023-04-03T16:18:10;12.72;63.08
75466;HTU21D;64049;46.290;44.240;2023-04-03T16:20:36;12.70;63.27
75466;HTU21D;64049;46.290;44.240;2023-04-03T16:23:02;12.70;63.31
75466;HTU21D;64049;46.290;44.240;2023-04-03T16:25:28;12.69;63.37
75466;HTU21D;64049;46.290;44.240;2023-04-03T16:27:54;12.71;63.44
75466;HTU21D;64049;46.290;44.240;2023-04-03T16:30:20;12.72;63.42
75466;HTU21D;64049;46.290;44.240;2023-04-03T16:32:46;12.70;63.34
75466;HTU21D;64049;46.290;44.240;2023-04-03T16:35:12;12.72;63.20
75466;HTU21D;64049;46.290;44.240;2023-04-03T16:37:38;12.72;63.07
75466;HTU21D;64049;46.290;44.240;2023-04-03T16:40:06;12.74;63.18
75466;HTU21D;64049;46.290;44.240;2023-04-03T16:42:32;12.75;63.15
75466;HTU21D;64049;46.290;44.240;2023-04-03T16:44:58;12.73;62.95
75466;HTU21D;64049;46.290;44.240;2023-04-03T16:47:26;12.73;62.93
75466;HTU21D;64049;46.290;44.240;2023-04-03T16:49:52;12.73;63.10